»·PEaware :: CAX357 KVCV-MMES

CAX357 :: KVCV-MMES

FLIGHT INFORMATION

Flight Status: Arrived
Operator:
California Airlines (website)
More flights by this operator :: More flights under this callsign
Pilot: Brandon K. (3556)
Aircraft: CESSNA 206 STATIONAIR
(C206)
More flights by this aircraft type
Origin: KVCV Socal Logistics
United States
Destination: MMES Ensenada Intl
Mexico
More flights between these airports :: More routes between these airports
Route: PDZ V186 PGY TIJ V1 ENS
File this flight plan on PilotEdge
Remarks:
Altitude:
(Current/Filed)
13,500ft
Speed:
(Current/Filed)
150kts
Departed: 04-Dec-14 06:09 PM
Arrived: 04-Dec-14 07:27 PM
Distance/Time
Traveled:
172nm/1:18
Distance/Time
To Go:
Arrived

Flight Plot

Page will automatically refresh every two minutes.


Map Options




Map Legend


Flown Route
Filed Route
Departure Airport
Arrival Airport
Navaid (VOR, NDB)
Fix

Horizontal Profiles

Position Reports

Time Latitude Longitude Heading Altitude Ground
Speed
04-Dec-14 17:47 34.586539 -117.377224 305 2889ft 0kts
04-Dec-14 17:48 34.586539 -117.377224 305 2889ft 0kts
04-Dec-14 17:49 34.586539 -117.377224 305 2889ft 0kts
04-Dec-14 17:50 34.586539 -117.377224 305 2889ft 0kts
04-Dec-14 17:51 34.586539 -117.377224 305 2889ft 0kts
04-Dec-14 17:52 34.586539 -117.377224 305 2889ft 0kts
04-Dec-14 17:53 34.586539 -117.377224 305 2889ft 0kts
04-Dec-14 17:54 34.586539 -117.377224 305 2889ft 0kts
04-Dec-14 17:55 34.586539 -117.377224 305 2889ft 0kts
04-Dec-14 17:56 34.586539 -117.377224 305 2889ft 0kts
04-Dec-14 17:57 34.586539 -117.377224 305 2889ft 0kts
04-Dec-14 17:58 34.586832 -117.377597 317 2889ft 8kts
04-Dec-14 17:59 34.588969 -117.377432 45 2889ft 11kts
04-Dec-14 18:00 34.591272 -117.374755 42 2889ft 10kts
04-Dec-14 18:01 34.593265 -117.371255 90 2889ft 15kts
04-Dec-14 18:02 34.594136 -117.367797 9 2889ft 9kts
04-Dec-14 18:03 34.597523 -117.366974 13 2889ft 11kts
04-Dec-14 18:04 34.599079 -117.366625 8 2889ft 0kts
04-Dec-14 18:05 34.599147 -117.366618 1 2889ft 4kts
04-Dec-14 18:06 34.592593 -117.375877 223 3087ft 86kts
04-Dec-14 18:07 34.574588 -117.397286 224 4099ft 94kts
04-Dec-14 18:08 34.555247 -117.420272 224 5103ft 100kts
04-Dec-14 18:09 34.533748 -117.441261 179 6107ft 104kts
04-Dec-14 18:10 34.506082 -117.429921 162 7104ft 106kts
04-Dec-14 18:11 34.476810 -117.419188 174 8005ft 112kts
04-Dec-14 18:12 34.445360 -117.419041 186 8899ft 115kts
04-Dec-14 18:13 34.413669 -117.423780 190 9798ft 115kts
04-Dec-14 18:14 34.382130 -117.430001 191 10697ft 115kts
04-Dec-14 18:15 34.350548 -117.436669 192 11602ft 114kts
04-Dec-14 18:16 34.319407 -117.443363 192 12501ft 113kts
04-Dec-14 18:17 34.288624 -117.450009 192 13399ft 112kts
04-Dec-14 18:18 34.257408 -117.456784 192 13970ft 138kts
04-Dec-14 18:19 34.211789 -117.466738 192 13468ft 173kts
04-Dec-14 18:20 34.165133 -117.476809 192 13465ft 168kts
04-Dec-14 18:21 34.121101 -117.486310 192 13464ft 167kts
04-Dec-14 18:22 34.077663 -117.495673 192 13464ft 167kts
04-Dec-14 18:23 34.033089 -117.505276 192 13465ft 168kts
04-Dec-14 18:24 33.989016 -117.514771 191 13466ft 171kts
04-Dec-14 18:25 33.945537 -117.524124 190 13468ft 172kts
04-Dec-14 18:26 33.903338 -117.516425 146 13471ft 173kts
04-Dec-14 18:27 33.864465 -117.484601 144 13471ft 174kts
04-Dec-14 18:28 33.825662 -117.452201 144 13473ft 176kts
04-Dec-14 18:29 33.786828 -117.419718 145 13476ft 177kts
04-Dec-14 18:30 33.748827 -117.387951 145 13479ft 178kts
04-Dec-14 18:31 33.715299 -117.359950 146 13480ft 179kts
04-Dec-14 18:32 33.674839 -117.326216 145 13500ft 180kts
04-Dec-14 18:33 33.635544 -117.293465 145 13501ft 180kts
04-Dec-14 18:34 33.596774 -117.261183 145 13501ft 180kts
04-Dec-14 18:35 33.561461 -117.231783 146 13497ft 180kts
04-Dec-14 18:36 33.522960 -117.199819 147 13492ft 178kts
04-Dec-14 18:37 33.485514 -117.168776 148 13486ft 175kts
04-Dec-14 18:38 33.444037 -117.154523 172 13482ft 166kts
04-Dec-14 18:39 33.399330 -117.145004 172 13480ft 166kts
04-Dec-14 18:40 33.361106 -117.136894 172 13480ft 168kts
04-Dec-14 18:41 33.318814 -117.127985 169 13489ft 169kts
04-Dec-14 18:42 33.275190 -117.118681 169 13489ft 169kts
04-Dec-14 18:43 33.231295 -117.109421 169 13490ft 169kts
04-Dec-14 18:44 33.187260 -117.100144 169 13491ft 169kts
04-Dec-14 18:45 33.143485 -117.090911 169 13492ft 169kts
04-Dec-14 18:46 33.105296 -117.082865 169 13493ft 170kts
04-Dec-14 18:47 33.065141 -117.074400 169 13496ft 172kts
04-Dec-14 18:48 33.037748 -117.068628 170 13498ft 173kts
04-Dec-14 18:49 32.997812 -117.060224 171 13500ft 175kts
04-Dec-14 18:50 32.958420 -117.051949 172 13503ft 175kts
04-Dec-14 18:51 32.911358 -117.042119 172 13506ft 176kts
04-Dec-14 18:52 32.878211 -117.035182 171 13509ft 177kts
04-Dec-14 18:53 32.834977 -117.026135 171 13513ft 179kts
04-Dec-14 18:54 32.793301 -117.017420 171 13517ft 180kts
04-Dec-14 18:55 32.755957 -117.009610 170 13513ft 180kts
04-Dec-14 18:56 32.720754 -117.002246 170 13509ft 179kts
04-Dec-14 18:57 32.673784 -116.992429 170 13502ft 178kts
04-Dec-14 18:58 32.626850 -116.982628 170 13496ft 177kts
04-Dec-14 18:59 32.585218 -116.969687 162 13497ft 177kts
04-Dec-14 19:00 32.542916 -116.953710 162 13498ft 177kts
04-Dec-14 19:01 32.498766 -116.933280 160 13499ft 177kts
04-Dec-14 19:02 32.456604 -116.913559 160 13500ft 176kts
04-Dec-14 19:03 32.417985 -116.895478 161 13498ft 175kts
04-Dec-14 19:04 32.378805 -116.876973 162 13498ft 174kts
04-Dec-14 19:05 32.337044 -116.857481 162 13498ft 174kts
04-Dec-14 19:06 32.291748 -116.836380 162 13498ft 175kts
04-Dec-14 19:07 32.249280 -116.816663 161 12860ft 195kts
04-Dec-14 19:08 32.197909 -116.792826 161 11852ft 198kts
04-Dec-14 19:09 32.146784 -116.769088 161 10845ft 197kts
04-Dec-14 19:10 32.096200 -116.745631 161 9840ft 195kts
04-Dec-14 19:11 32.047357 -116.723007 161 8859ft 193kts
04-Dec-14 19:12 31.997823 -116.700047 161 7856ft 191kts
04-Dec-14 19:13 31.949532 -116.677501 161 6684ft 178kts
04-Dec-14 19:14 31.905244 -116.654467 157 5400ft 172kts
04-Dec-14 19:15 31.861220 -116.636747 192 4112ft 165kts
04-Dec-14 19:16 31.821684 -116.648779 197 2944ft 162kts
04-Dec-14 19:17 31.779347 -116.659317 163 1667ft 166kts
04-Dec-14 19:18 31.754708 -116.621577 123 1028ft 102kts
04-Dec-14 19:19 31.739295 -116.592481 123 1041ft 110kts
04-Dec-14 19:20 31.748433 -116.569603 36 1046ft 87kts
04-Dec-14 19:21 31.769458 -116.562674 327 1011ft 79kts
04-Dec-14 19:22 31.781857 -116.579307 300 498ft 68kts
04-Dec-14 19:23 31.791417 -116.596401 302 73ft 56kts
04-Dec-14 19:24 31.797101 -116.605655 19 68ft 13kts
04-Dec-14 19:25 31.797569 -116.600872 90 69ft 20kts
04-Dec-14 19:26 31.798311 -116.596504 340 69ft 7kts
04-Dec-14 19:27 31.800243 -116.597122 336 69ft 0kts
04-Dec-14 19:28 31.800243 -116.597122 336 69ft 0kts

Navigation Log

Ident Type
Flight plan parsing failed, navigation log unavailable